createdAt,value
2018-06-19T00:01:26.922Z,5.00
2018-06-19T00:06:21.562Z,4.87
2018-06-19T00:11:16.068Z,5.00
2018-06-19T00:16:10.736Z,4.93
2018-06-19T00:21:10.370Z,4.57
2018-06-19T00:26:05.181Z,4.80
2018-06-19T00:30:59.707Z,4.77
2018-06-19T00:35:54.192Z,4.67
2018-06-19T00:40:48.823Z,4.87
2018-06-19T00:45:43.803Z,4.63
2018-06-19T00:50:38.269Z,4.63
2018-06-19T00:55:32.912Z,4.60
2018-06-19T01:00:27.450Z,4.33
2018-06-19T01:05:22.093Z,4.70
2018-06-19T01:10:16.354Z,4.73
2018-06-19T01:15:10.834Z,4.53
2018-06-19T01:20:07.348Z,5.07
2018-06-19T01:25:01.537Z,5.20
2018-06-19T01:29:55.856Z,5.40
2018-06-19T01:34:50.329Z,5.27
2018-06-19T01:39:44.798Z,5.87
2018-06-19T01:44:39.284Z,6.43
2018-06-19T01:49:33.909Z,6.13
2018-06-19T01:54:28.758Z,6.73
2018-06-19T01:59:23.435Z,6.33
2018-06-19T02:04:18.055Z,6.57
2018-06-19T02:09:12.849Z,6.73
2018-06-19T02:14:07.301Z,6.37
2018-06-19T02:19:01.884Z,6.57
2018-06-19T02:23:56.620Z,6.20
2018-06-19T02:28:51.113Z,5.93
2018-06-19T02:33:45.776Z,5.77
2018-06-19T02:38:40.313Z,5.67
2018-06-19T02:43:34.778Z,5.93
2018-06-19T02:48:29.276Z,6.00
2018-06-19T02:53:23.732Z,6.07
2018-06-19T02:58:18.204Z,6.67
2018-06-19T03:03:12.675Z,6.70
2018-06-19T03:08:07.007Z,6.60
2018-06-19T03:13:01.500Z,6.73
2018-06-19T03:17:56.037Z,6.37
2018-06-19T03:22:50.652Z,5.70
2018-06-19T03:27:45.458Z,6.23
2018-06-19T03:32:40.220Z,6.23
2018-06-19T03:37:34.824Z,5.73
2018-06-19T03:42:30.022Z,5.67
2018-06-19T03:47:24.562Z,6.33
2018-06-19T03:52:18.825Z,5.53
2018-06-19T03:57:13.454Z,6.40
2018-06-19T04:02:07.922Z,5.10
2018-06-19T04:07:02.831Z,5.40
2018-06-19T04:11:57.657Z,5.30
2018-06-19T04:16:52.367Z,5.03
2018-06-19T04:21:47.332Z,5.03
2018-06-19T04:26:41.741Z,4.30
2018-06-19T04:31:36.194Z,4.60
2018-06-19T04:36:31.455Z,4.40
2018-06-19T04:41:26.528Z,3.93
2018-06-19T04:46:21.136Z,4.00
2018-06-19T04:51:15.638Z,3.97
2018-06-19T04:56:10.112Z,3.50
2018-06-19T05:01:04.845Z,4.73
2018-06-19T05:05:59.567Z,3.60
2018-06-19T05:10:54.287Z,3.87
2018-06-19T05:15:49.042Z,3.80
2018-06-19T05:20:43.753Z,3.80
2018-06-19T05:25:38.293Z,4.00
2018-06-19T05:30:32.822Z,4.07
2018-06-19T05:35:27.725Z,4.13
2018-06-19T05:40:22.293Z,4.07
2018-06-19T05:45:16.843Z,4.37
2018-06-19T05:50:11.370Z,3.50
2018-06-19T05:55:06.008Z,4.10
2018-06-19T06:00:00.480Z,4.70
2018-06-19T06:04:55.129Z,4.60
2018-06-19T06:09:49.857Z,3.97
2018-06-19T06:14:44.592Z,4.23
2018-06-19T06:19:39.576Z,4.53
2018-06-19T06:24:34.745Z,4.33
2018-06-19T06:29:29.600Z,4.73
2018-06-19T06:34:24.903Z,4.50
2018-06-19T06:39:19.486Z,4.33
2018-06-19T06:44:14.089Z,4.07
2018-06-19T06:49:09.206Z,5.27
2018-06-19T06:54:03.942Z,4.43
2018-06-19T06:58:58.778Z,3.93
2018-06-19T07:03:53.246Z,3.53
2018-06-19T07:08:47.908Z,3.43
2018-06-19T07:13:42.416Z,3.60
2018-06-19T07:18:37.628Z,3.53
2018-06-19T07:23:31.906Z,3.50
2018-06-19T07:28:26.360Z,3.20
2018-06-19T07:33:21.040Z,3.83
2018-06-19T07:38:15.335Z,3.47
2018-06-19T07:43:10.138Z,3.60
2018-06-19T07:48:04.888Z,3.33
2018-06-19T07:52:59.650Z,3.60
2018-06-19T07:57:54.072Z,3.90
2018-06-19T08:02:49.666Z,4.00
2018-06-19T08:07:44.343Z,3.30
2018-06-19T08:12:39.268Z,3.70
2018-06-19T08:17:33.816Z,4.00
2018-06-19T08:22:28.547Z,3.50
2018-06-19T08:27:23.565Z,3.63
2018-06-19T08:32:18.445Z,3.50
2018-06-19T08:37:13.768Z,3.67
2018-06-19T08:42:08.320Z,4.20
2018-06-19T08:47:02.639Z,3.50
2018-06-19T08:51:58.047Z,4.07
2018-06-19T08:56:52.828Z,3.57
2018-06-19T09:01:47.725Z,3.80
2018-06-19T09:06:43.192Z,4.03
2018-06-19T09:11:37.976Z,3.90
2018-06-19T09:16:32.450Z,3.50
2018-06-19T09:21:27.281Z,3.53
2018-06-19T09:26:21.809Z,3.93
2018-06-19T09:31:16.793Z,4.40
2018-06-19T09:36:11.532Z,3.90
2018-06-19T09:41:06.370Z,3.50
2018-06-19T09:46:01.449Z,3.43
2018-06-19T09:50:55.922Z,4.13
2018-06-19T09:55:50.753Z,3.80
2018-06-19T10:00:45.647Z,3.50
2018-06-19T10:05:40.421Z,3.30
2018-06-19T10:10:35.116Z,3.50
2018-06-19T10:15:29.644Z,3.17
2018-06-19T10:20:24.262Z,3.57
2018-06-19T10:25:19.131Z,3.10
2018-06-19T10:30:13.842Z,3.00
2018-06-19T10:35:08.813Z,3.17
2018-06-19T10:40:03.327Z,3.40
2018-06-19T10:44:57.733Z,3.60
2018-06-19T10:49:52.240Z,3.47
2018-06-19T10:54:46.710Z,3.40
2018-06-19T10:59:41.167Z,4.10
2018-06-19T11:04:35.730Z,3.30
2018-06-19T11:09:31.042Z,4.40
2018-06-19T11:14:25.670Z,3.60
2018-06-19T11:19:20.406Z,3.63
2018-06-19T11:24:15.314Z,3.23
2018-06-19T11:29:09.667Z,4.20
2018-06-19T11:34:04.445Z,4.43
2018-06-19T11:38:59.102Z,3.90
2018-06-19T11:43:53.702Z,3.50
2018-06-19T11:48:48.331Z,4.40
2018-06-19T11:53:43.156Z,4.20
2018-06-19T11:58:37.467Z,4.33
2018-06-19T12:03:31.952Z,3.50
2018-06-19T12:08:26.849Z,3.63
2018-06-19T12:13:21.984Z,3.87
2018-06-19T12:18:17.004Z,3.30
2018-06-19T12:23:11.556Z,3.53
2018-06-19T12:28:06.082Z,3.30
2018-06-19T12:33:00.854Z,3.27
2018-06-19T12:37:55.140Z,3.27
2018-06-19T12:42:50.308Z,3.10
2018-06-19T12:47:45.145Z,2.97
2018-06-19T12:52:56.650Z,3.33
2018-06-19T12:57:51.971Z,4.00
2018-06-19T13:03:04.074Z,2.97
2018-06-19T13:07:58.927Z,3.10
2018-06-19T13:13:31.280Z,3.33
2018-06-19T13:18:44.223Z,3.50
2018-06-19T13:23:39.181Z,2.80
2018-06-19T13:29:44.665Z,3.00
2018-06-19T13:34:39.378Z,2.70
2018-06-19T13:39:35.006Z,2.70
2018-06-19T13:44:46.451Z,2.50
2018-06-19T13:49:42.109Z,2.67
2018-06-19T13:54:36.862Z,2.50
2018-06-19T13:59:31.450Z,3.13
2018-06-19T14:04:26.302Z,2.53
2018-06-19T14:10:35.499Z,2.97
2018-06-19T14:15:34.292Z,2.90
2018-06-19T14:20:28.903Z,2.80
2018-06-19T14:25:23.958Z,3.13
2018-06-19T14:30:18.583Z,3.50
2018-06-19T14:35:13.585Z,3.00
2018-06-19T14:40:08.031Z,3.13
2018-06-19T14:45:02.868Z,3.00
2018-06-19T14:49:57.629Z,2.63
2018-06-19T14:54:52.065Z,2.73
2018-06-19T14:59:46.676Z,2.93
2018-06-19T15:04:41.248Z,2.27
2018-06-19T15:09:35.440Z,2.70
2018-06-19T15:14:30.020Z,2.40
2018-06-19T15:19:25.004Z,2.40
2018-06-19T15:24:19.886Z,2.77
2018-06-19T15:29:14.530Z,2.40
2018-06-19T15:34:09.430Z,2.80
2018-06-19T15:39:05.365Z,2.57
2018-06-19T15:43:59.825Z,3.20
2018-06-19T15:48:54.520Z,2.60
2018-06-19T15:53:49.665Z,2.77
2018-06-19T15:58:44.039Z,2.60
2018-06-19T16:03:38.565Z,2.50
2018-06-19T16:08:33.203Z,2.60
2018-06-19T16:13:27.742Z,2.90
2018-06-19T16:18:22.663Z,2.50
2018-06-19T16:23:17.147Z,2.40
2018-06-19T16:28:11.829Z,2.00
2018-06-19T16:33:06.644Z,2.40
2018-06-19T16:38:00.986Z,2.23
2018-06-19T16:42:56.080Z,2.03
2018-06-19T16:47:51.150Z,2.00
2018-06-19T16:52:46.118Z,2.20
2018-06-19T16:57:41.064Z,1.80
2018-06-19T17:02:36.924Z,1.90
2018-06-19T17:07:31.909Z,2.20
2018-06-19T17:12:27.669Z,2.07
2018-06-19T17:17:23.393Z,2.00
2018-06-19T17:22:18.037Z,2.70
2018-06-19T17:27:12.954Z,2.50
2018-06-19T17:32:07.455Z,2.53
2018-06-19T17:37:02.296Z,2.80
2018-06-19T17:41:57.682Z,2.43
2018-06-19T17:46:52.985Z,2.70
2018-06-19T17:51:48.298Z,2.77
2018-06-19T17:56:44.452Z,2.50
2018-06-19T18:01:40.686Z,2.83
2018-06-19T18:06:36.787Z,2.77
2018-06-19T18:11:31.799Z,2.97
2018-06-19T18:16:26.408Z,2.80
2018-06-19T18:21:20.993Z,2.50
2018-06-19T18:26:15.809Z,2.50
2018-06-19T18:31:10.745Z,2.90
2018-06-19T18:36:05.421Z,3.20
2018-06-19T18:41:00.379Z,2.93
2018-06-19T18:45:55.005Z,2.77
2018-06-19T18:50:49.495Z,2.60
2018-06-19T18:55:43.818Z,2.73
2018-06-19T19:00:38.180Z,2.80
2018-06-19T19:05:32.853Z,2.57
2018-06-19T19:10:32.597Z,2.87
2018-06-19T19:15:32.371Z,2.80
2018-06-19T19:20:37.205Z,2.60
2018-06-19T19:30:56.932Z,3.00
2018-06-19T19:35:52.397Z,2.53
2018-06-19T19:40:46.932Z,3.10
2018-06-19T19:45:42.019Z,2.87
2018-06-19T19:50:36.743Z,3.03
2018-06-19T19:55:31.275Z,3.00
2018-06-19T20:00:27.436Z,3.20
2018-06-19T20:05:22.011Z,3.13
2018-06-19T20:10:17.488Z,3.30
2018-06-19T20:15:12.518Z,3.40
2018-06-19T20:20:09.887Z,3.20
2018-06-19T20:25:05.107Z,3.40
2018-06-19T20:30:00.405Z,2.83
2018-06-19T20:34:55.312Z,3.30
2018-06-19T20:39:50.429Z,2.87
2018-06-19T20:44:45.330Z,3.13
2018-06-19T20:49:40.390Z,3.57
2018-06-19T20:54:35.476Z,3.43
2018-06-19T20:59:30.825Z,3.03
2018-06-19T21:04:25.995Z,3.20
2018-06-19T21:09:20.496Z,3.00
2018-06-19T21:14:15.378Z,3.50
2018-06-19T21:19:09.828Z,3.67
2018-06-19T21:24:04.464Z,3.50
2018-06-19T21:28:59.279Z,3.40
2018-06-19T21:33:53.813Z,3.47
2018-06-19T21:38:48.590Z,3.40
2018-06-19T21:43:43.464Z,3.30
2018-06-19T21:48:38.351Z,3.40
2018-06-19T21:53:33.072Z,3.80
2018-06-19T21:58:27.967Z,3.60
2018-06-19T22:03:23.566Z,3.33
2018-06-19T22:08:19.266Z,3.43
2018-06-19T22:13:14.169Z,3.30
2018-06-19T22:18:09.074Z,3.50
2018-06-19T22:23:04.086Z,3.37
2018-06-19T22:27:58.828Z,3.63
2018-06-19T22:32:54.124Z,3.00
2018-06-19T22:37:48.378Z,3.67
2018-06-19T22:42:43.311Z,3.80
2018-06-19T22:47:37.555Z,3.70
2018-06-19T22:52:32.383Z,3.30
2018-06-19T22:57:27.032Z,3.67
2018-06-19T23:02:21.798Z,4.13
2018-06-19T23:07:16.306Z,4.03
2018-06-19T23:12:10.776Z,3.80
2018-06-19T23:17:05.357Z,3.80
2018-06-19T23:22:00.210Z,3.70
2018-06-19T23:26:54.717Z,3.70
2018-06-19T23:31:49.352Z,3.57
2018-06-19T23:36:43.993Z,4.27
2018-06-19T23:41:39.470Z,4.20
2018-06-19T23:46:33.941Z,3.80
2018-06-19T23:51:28.627Z,3.83
2018-06-19T23:56:23.132Z,4.50
